sensor_id;sensor_type;location;lat;lon;timestamp;P1;durP1;ratioP1;P2;durP2;ratioP2
44328;SDS011;30039;51.462;6.892;2023-07-20T00:00:41;6.50;;;2.85;;
44328;SDS011;30039;51.462;6.892;2023-07-20T00:03:26;6.07;;;2.83;;
44328;SDS011;30039;51.462;6.892;2023-07-20T00:06:12;7.47;;;3.08;;
44328;SDS011;30039;51.462;6.892;2023-07-20T00:08:57;6.57;;;2.80;;
44328;SDS011;30039;51.462;6.892;2023-07-20T00:11:50;4.43;;;3.08;;
44328;SDS011;30039;51.462;6.892;2023-07-20T00:14:36;7.18;;;2.90;;
44328;SDS011;30039;51.462;6.892;2023-07-20T00:17:22;5.13;;;2.92;;
44328;SDS011;30039;51.462;6.892;2023-07-20T00:20:07;5.57;;;2.72;;
44328;SDS011;30039;51.462;6.892;2023-07-20T00:22:53;5.20;;;2.78;;
44328;SDS011;30039;51.462;6.892;2023-07-20T00:25:40;6.85;;;3.00;;
44328;SDS011;30039;51.462;6.892;2023-07-20T00:28:26;4.85;;;2.60;;
44328;SDS011;30039;51.462;6.892;2023-07-20T00:31:11;5.60;;;3.00;;
44328;SDS011;30039;51.462;6.892;2023-07-20T00:33:57;6.43;;;2.83;;
44328;SDS011;30039;51.462;6.892;2023-07-20T00:36:42;5.30;;;3.00;;
44328;SDS011;30039;51.462;6.892;2023-07-20T00:39:28;5.53;;;2.90;;
44328;SDS011;30039;51.462;6.892;2023-07-20T00:42:14;6.13;;;3.08;;
44328;SDS011;30039;51.462;6.892;2023-07-20T00:44:59;6.72;;;2.53;;
44328;SDS011;30039;51.462;6.892;2023-07-20T00:47:45;6.60;;;2.83;;
44328;SDS011;30039;51.462;6.892;2023-07-20T00:50:31;4.15;;;2.50;;
44328;SDS011;30039;51.462;6.892;2023-07-20T00:53:17;6.95;;;3.03;;
44328;SDS011;30039;51.462;6.892;2023-07-20T00:56:03;6.38;;;2.95;;
44328;SDS011;30039;51.462;6.892;2023-07-20T00:58:48;5.82;;;3.15;;
44328;SDS011;30039;51.462;6.892;2023-07-20T01:01:34;5.43;;;2.90;;
44328;SDS011;30039;51.462;6.892;2023-07-20T01:04:20;6.57;;;3.25;;
44328;SDS011;30039;51.462;6.892;2023-07-20T01:07:14;8.95;;;3.13;;
44328;SDS011;30039;51.462;6.892;2023-07-20T01:12:48;7.22;;;2.95;;
44328;SDS011;30039;51.462;6.892;2023-07-20T01:15:34;7.43;;;2.97;;
44328;SDS011;30039;51.462;6.892;2023-07-20T01:18:20;4.70;;;2.55;;
44328;SDS011;30039;51.462;6.892;2023-07-20T01:21:09;6.93;;;2.80;;
44328;SDS011;30039;51.462;6.892;2023-07-20T01:24:00;4.15;;;2.53;;
44328;SDS011;30039;51.462;6.892;2023-07-20T01:32:42;5.82;;;3.05;;
44328;SDS011;30039;51.462;6.892;2023-07-20T01:35:28;4.63;;;2.70;;
44328;SDS011;30039;51.462;6.892;2023-07-20T01:38:14;7.65;;;2.60;;
44328;SDS011;30039;51.462;6.892;2023-07-20T01:41:00;4.82;;;2.45;;
44328;SDS011;30039;51.462;6.892;2023-07-20T01:43:47;4.97;;;2.60;;
44328;SDS011;30039;51.462;6.892;2023-07-20T01:46:32;6.47;;;2.67;;
44328;SDS011;30039;51.462;6.892;2023-07-20T01:49:18;5.03;;;3.03;;
44328;SDS011;30039;51.462;6.892;2023-07-20T01:52:04;6.65;;;3.30;;
44328;SDS011;30039;51.462;6.892;2023-07-20T01:54:50;4.75;;;3.15;;
44328;SDS011;30039;51.462;6.892;2023-07-20T01:57:35;5.57;;;3.40;;
44328;SDS011;30039;51.462;6.892;2023-07-20T02:00:21;6.38;;;3.55;;
44328;SDS011;30039;51.462;6.892;2023-07-20T02:03:09;5.95;;;3.10;;
44328;SDS011;30039;51.462;6.892;2023-07-20T02:05:54;6.63;;;3.20;;
44328;SDS011;30039;51.462;6.892;2023-07-20T02:08:42;5.55;;;3.38;;
44328;SDS011;30039;51.462;6.892;2023-07-20T02:11:27;5.45;;;3.40;;
44328;SDS011;30039;51.462;6.892;2023-07-20T02:14:13;7.22;;;3.50;;
44328;SDS011;30039;51.462;6.892;2023-07-20T02:16:59;4.57;;;3.25;;
44328;SDS011;30039;51.462;6.892;2023-07-20T02:19:45;7.28;;;3.80;;
44328;SDS011;30039;51.462;6.892;2023-07-20T02:22:31;6.60;;;3.42;;
44328;SDS011;30039;51.462;6.892;2023-07-20T02:25:16;8.57;;;4.10;;
44328;SDS011;30039;51.462;6.892;2023-07-20T02:28:03;7.18;;;3.70;;
44328;SDS011;30039;51.462;6.892;2023-07-20T02:30:49;5.38;;;2.92;;
44328;SDS011;30039;51.462;6.892;2023-07-20T02:33:35;5.78;;;3.20;;
44328;SDS011;30039;51.462;6.892;2023-07-20T02:36:20;6.57;;;3.60;;
44328;SDS011;30039;51.462;6.892;2023-07-20T02:39:06;7.13;;;3.53;;
44328;SDS011;30039;51.462;6.892;2023-07-20T02:41:52;9.90;;;4.15;;
44328;SDS011;30039;51.462;6.892;2023-07-20T02:44:37;8.05;;;4.68;;
44328;SDS011;30039;51.462;6.892;2023-07-20T02:47:23;8.10;;;4.90;;
44328;SDS011;30039;51.462;6.892;2023-07-20T02:50:09;6.82;;;4.32;;
44328;SDS011;30039;51.462;6.892;2023-07-20T03:14:05;7.18;;;4.57;;
44328;SDS011;30039;51.462;6.892;2023-07-20T03:16:51;8.43;;;5.20;;
44328;SDS011;30039;51.462;6.892;2023-07-20T03:32:12;9.77;;;6.30;;
44328;SDS011;30039;51.462;6.892;2023-07-20T03:34:58;11.35;;;6.88;;
44328;SDS011;30039;51.462;6.892;2023-07-20T03:37:43;11.25;;;6.40;;
44328;SDS011;30039;51.462;6.892;2023-07-20T03:40:29;9.80;;;7.25;;
44328;SDS011;30039;51.462;6.892;2023-07-20T03:43:15;9.52;;;6.32;;
44328;SDS011;30039;51.462;6.892;2023-07-20T03:46:01;12.27;;;7.65;;
44328;SDS011;30039;51.462;6.892;2023-07-20T03:48:46;12.68;;;6.47;;
44328;SDS011;30039;51.462;6.892;2023-07-20T03:51:32;10.38;;;7.13;;
44328;SDS011;30039;51.462;6.892;2023-07-20T03:54:17;10.50;;;7.32;;
44328;SDS011;30039;51.462;6.892;2023-07-20T03:57:04;11.20;;;7.05;;
44328;SDS011;30039;51.462;6.892;2023-07-20T03:59:50;11.68;;;7.32;;
44328;SDS011;30039;51.462;6.892;2023-07-20T04:02:35;10.48;;;7.00;;
44328;SDS011;30039;51.462;6.892;2023-07-20T04:05:21;11.20;;;7.45;;
44328;SDS011;30039;51.462;6.892;2023-07-20T04:08:06;11.95;;;8.40;;
44328;SDS011;30039;51.462;6.892;2023-07-20T04:10:52;13.95;;;8.43;;
44328;SDS011;30039;51.462;6.892;2023-07-20T04:13:38;16.23;;;8.60;;
44328;SDS011;30039;51.462;6.892;2023-07-20T04:16:23;13.07;;;8.77;;
44328;SDS011;30039;51.462;6.892;2023-07-20T04:19:09;14.65;;;8.93;;
44328;SDS011;30039;51.462;6.892;2023-07-20T04:21:54;14.88;;;8.43;;
44328;SDS011;30039;51.462;6.892;2023-07-20T04:24:40;15.55;;;9.38;;
44328;SDS011;30039;51.462;6.892;2023-07-20T04:27:25;13.77;;;7.93;;
44328;SDS011;30039;51.462;6.892;2023-07-20T04:30:11;14.43;;;8.50;;
44328;SDS011;30039;51.462;6.892;2023-07-20T04:32:58;12.80;;;7.32;;
44328;SDS011;30039;51.462;6.892;2023-07-20T04:38:35;12.45;;;8.02;;
44328;SDS011;30039;51.462;6.892;2023-07-20T04:41:20;12.05;;;7.68;;
44328;SDS011;30039;51.462;6.892;2023-07-20T04:44:06;10.95;;;7.50;;
44328;SDS011;30039;51.462;6.892;2023-07-20T04:46:52;12.40;;;7.60;;
44328;SDS011;30039;51.462;6.892;2023-07-20T04:49:38;9.98;;;7.70;;
44328;SDS011;30039;51.462;6.892;2023-07-20T04:52:23;10.32;;;7.32;;
44328;SDS011;30039;51.462;6.892;2023-07-20T04:55:09;10.85;;;7.45;;
44328;SDS011;30039;51.462;6.892;2023-07-20T04:57:55;10.82;;;7.30;;
44328;SDS011;30039;51.462;6.892;2023-07-20T05:00:40;9.05;;;6.85;;
44328;SDS011;30039;51.462;6.892;2023-07-20T05:03:26;8.40;;;6.03;;
44328;SDS011;30039;51.462;6.892;2023-07-20T05:06:12;8.20;;;5.95;;
44328;SDS011;30039;51.462;6.892;2023-07-20T05:08:58;8.70;;;6.13;;
44328;SDS011;30039;51.462;6.892;2023-07-20T05:11:43;8.75;;;5.88;;
44328;SDS011;30039;51.462;6.892;2023-07-20T05:14:30;7.68;;;5.88;;
44328;SDS011;30039;51.462;6.892;2023-07-20T05:17:16;9.35;;;6.10;;
44328;SDS011;30039;51.462;6.892;2023-07-20T05:20:02;10.88;;;6.25;;
44328;SDS011;30039;51.462;6.892;2023-07-20T05:22:49;7.65;;;5.57;;
44328;SDS011;30039;51.462;6.892;2023-07-20T05:25:35;10.43;;;7.15;;
44328;SDS011;30039;51.462;6.892;2023-07-20T05:28:20;7.18;;;5.30;;
44328;SDS011;30039;51.462;6.892;2023-07-20T05:31:06;8.88;;;5.47;;
44328;SDS011;30039;51.462;6.892;2023-07-20T05:33:51;7.03;;;5.15;;
44328;SDS011;30039;51.462;6.892;2023-07-20T05:36:37;6.03;;;4.90;;
44328;SDS011;30039;51.462;6.892;2023-07-20T05:39:23;6.03;;;4.93;;
44328;SDS011;30039;51.462;6.892;2023-07-20T05:42:08;7.47;;;5.18;;
44328;SDS011;30039;51.462;6.892;2023-07-20T05:44:54;7.10;;;5.10;;
44328;SDS011;30039;51.462;6.892;2023-07-20T05:47:43;4.75;;;3.85;;
44328;SDS011;30039;51.462;6.892;2023-07-20T05:50:29;7.18;;;4.13;;
44328;SDS011;30039;51.462;6.892;2023-07-20T05:53:15;4.88;;;3.78;;
44328;SDS011;30039;51.462;6.892;2023-07-20T05:56:01;5.93;;;4.28;;
44328;SDS011;30039;51.462;6.892;2023-07-20T05:58:46;5.97;;;3.88;;
44328;SDS011;30039;51.462;6.892;2023-07-20T06:12:07;9.30;;;6.28;;
44328;SDS011;30039;51.462;6.892;2023-07-20T06:14:53;7.05;;;3.67;;
44328;SDS011;30039;51.462;6.892;2023-07-20T06:30:13;5.13;;;3.63;;
44328;SDS011;30039;51.462;6.892;2023-07-20T06:32:59;4.55;;;3.28;;
44328;SDS011;30039;51.462;6.892;2023-07-20T06:35:45;4.22;;;3.20;;
44328;SDS011;30039;51.462;6.892;2023-07-20T06:38:31;2.92;;;2.13;;
44328;SDS011;30039;51.462;6.892;2023-07-20T06:41:17;3.15;;;1.95;;
44328;SDS011;30039;51.462;6.892;2023-07-20T06:44:03;2.47;;;1.60;;
44328;SDS011;30039;51.462;6.892;2023-07-20T06:46:50;2.97;;;2.03;;
44328;SDS011;30039;51.462;6.892;2023-07-20T06:49:36;4.03;;;1.92;;
44328;SDS011;30039;51.462;6.892;2023-07-20T06:52:21;3.00;;;1.70;;
44328;SDS011;30039;51.462;6.892;2023-07-20T06:55:07;2.40;;;1.70;;
44328;SDS011;30039;51.462;6.892;2023-07-20T06:57:53;7.35;;;3.85;;
44328;SDS011;30039;51.462;6.892;2023-07-20T07:00:39;2.10;;;1.58;;
44328;SDS011;30039;51.462;6.892;2023-07-20T07:03:24;3.00;;;1.80;;
44328;SDS011;30039;51.462;6.892;2023-07-20T07:06:10;2.20;;;1.77;;
44328;SDS011;30039;51.462;6.892;2023-07-20T07:08:56;2.92;;;1.70;;
44328;SDS011;30039;51.462;6.892;2023-07-20T07:11:41;2.35;;;1.73;;
44328;SDS011;30039;51.462;6.892;2023-07-20T07:14:27;3.90;;;2.03;;
44328;SDS011;30039;51.462;6.892;2023-07-20T07:17:12;2.53;;;1.80;;
44328;SDS011;30039;51.462;6.892;2023-07-20T07:19:58;2.60;;;1.83;;
44328;SDS011;30039;51.462;6.892;2023-07-20T07:22:43;2.80;;;1.73;;
44328;SDS011;30039;51.462;6.892;2023-07-20T07:25:30;2.25;;;1.90;;
44328;SDS011;30039;51.462;6.892;2023-07-20T07:28:17;2.42;;;1.60;;
44328;SDS011;30039;51.462;6.892;2023-07-20T07:31:06;3.20;;;1.55;;
44328;SDS011;30039;51.462;6.892;2023-07-20T07:33:52;2.67;;;1.00;;
44328;SDS011;30039;51.462;6.892;2023-07-20T07:36:37;2.67;;;1.08;;
44328;SDS011;30039;51.462;6.892;2023-07-20T07:39:23;0.88;;;0.75;;
44328;SDS011;30039;51.462;6.892;2023-07-20T07:42:09;1.58;;;0.90;;
44328;SDS011;30039;51.462;6.892;2023-07-20T07:44:55;1.20;;;0.90;;
44328;SDS011;30039;51.462;6.892;2023-07-20T07:47:40;1.55;;;1.00;;
44328;SDS011;30039;51.462;6.892;2023-07-20T07:50:26;2.38;;;0.70;;
44328;SDS011;30039;51.462;6.892;2023-07-20T07:53:12;1.95;;;0.85;;
44328;SDS011;30039;51.462;6.892;2023-07-20T07:55:58;1.00;;;0.90;;
44328;SDS011;30039;51.462;6.892;2023-07-20T07:58:44;2.63;;;1.00;;
44328;SDS011;30039;51.462;6.892;2023-07-20T08:01:29;0.80;;;0.80;;
44328;SDS011;30039;51.462;6.892;2023-07-20T08:04:15;1.40;;;0.93;;
44328;SDS011;30039;51.462;6.892;2023-07-20T08:07:01;1.33;;;1.00;;
44328;SDS011;30039;51.462;6.892;2023-07-20T08:09:48;0.98;;;0.80;;
44328;SDS011;30039;51.462;6.892;2023-07-20T08:12:33;0.70;;;0.70;;
44328;SDS011;30039;51.462;6.892;2023-07-20T08:15:19;1.17;;;0.75;;
44328;SDS011;30039;51.462;6.892;2023-07-20T08:18:05;3.60;;;0.93;;
44328;SDS011;30039;51.462;6.892;2023-07-20T08:20:51;2.90;;;0.85;;
44328;SDS011;30039;51.462;6.892;2023-07-20T08:23:36;1.63;;;0.85;;
44328;SDS011;30039;51.462;6.892;2023-07-20T08:26:23;1.58;;;1.00;;
44328;SDS011;30039;51.462;6.892;2023-07-20T08:29:08;1.00;;;0.80;;
44328;SDS011;30039;51.462;6.892;2023-07-20T08:31:54;1.23;;;0.80;;
44328;SDS011;30039;51.462;6.892;2023-07-20T08:34:41;0.88;;;0.75;;
44328;SDS011;30039;51.462;6.892;2023-07-20T08:37:27;0.93;;;0.73;;
44328;SDS011;30039;51.462;6.892;2023-07-20T08:40:13;0.60;;;0.60;;
44328;SDS011;30039;51.462;6.892;2023-07-20T08:42:59;3.42;;;1.08;;
44328;SDS011;30039;51.462;6.892;2023-07-20T08:45:46;1.65;;;1.02;;
44328;SDS011;30039;51.462;6.892;2023-07-20T08:48:33;1.13;;;0.70;;
44328;SDS011;30039;51.462;6.892;2023-07-20T08:51:19;2.15;;;0.80;;
44328;SDS011;30039;51.462;6.892;2023-07-20T08:54:05;1.05;;;0.90;;
44328;SDS011;30039;51.462;6.892;2023-07-20T08:56:51;1.42;;;0.90;;
44328;SDS011;30039;51.462;6.892;2023-07-20T08:59:37;1.77;;;0.93;;
44328;SDS011;30039;51.462;6.892;2023-07-20T09:02:23;1.58;;;0.80;;
44328;SDS011;30039;51.462;6.892;2023-07-20T09:05:10;1.65;;;0.80;;
44328;SDS011;30039;51.462;6.892;2023-07-20T09:07:56;1.52;;;0.90;;
44328;SDS011;30039;51.462;6.892;2023-07-20T09:10:41;1.40;;;0.85;;
44328;SDS011;30039;51.462;6.892;2023-07-20T09:13:27;1.85;;;0.90;;
44328;SDS011;30039;51.462;6.892;2023-07-20T09:16:13;0.85;;;0.68;;
44328;SDS011;30039;51.462;6.892;2023-07-20T09:19:00;1.13;;;0.80;;
44328;SDS011;30039;51.462;6.892;2023-07-20T09:21:47;1.05;;;0.90;;
44328;SDS011;30039;51.462;6.892;2023-07-20T09:24:33;1.08;;;0.95;;
44328;SDS011;30039;51.462;6.892;2023-07-20T09:27:19;3.15;;;0.80;;
44328;SDS011;30039;51.462;6.892;2023-07-20T09:30:05;1.33;;;0.90;;
44328;SDS011;30039;51.462;6.892;2023-07-20T09:32:54;2.28;;;0.90;;
44328;SDS011;30039;51.462;6.892;2023-07-20T09:35:40;1.00;;;0.77;;
44328;SDS011;30039;51.462;6.892;2023-07-20T09:38:28;1.27;;;1.00;;
44328;SDS011;30039;51.462;6.892;2023-07-20T09:41:14;1.10;;;0.80;;
44328;SDS011;30039;51.462;6.892;2023-07-20T09:44:00;1.55;;;0.98;;
44328;SDS011;30039;51.462;6.892;2023-07-20T09:46:47;2.33;;;1.33;;
44328;SDS011;30039;51.462;6.892;2023-07-20T09:49:37;3.63;;;1.75;;
44328;SDS011;30039;51.462;6.892;2023-07-20T09:52:24;2.20;;;1.90;;
44328;SDS011;30039;51.462;6.892;2023-07-20T09:55:12;3.97;;;1.63;;
44328;SDS011;30039;51.462;6.892;2023-07-20T09:57:58;2.55;;;1.00;;
44328;SDS011;30039;51.462;6.892;2023-07-20T10:00:45;2.45;;;1.00;;
44328;SDS011;30039;51.462;6.892;2023-07-20T10:03:36;1.38;;;1.00;;
44328;SDS011;30039;51.462;6.892;2023-07-20T10:06:25;1.52;;;0.90;;
44328;SDS011;30039;51.462;6.892;2023-07-20T10:09:12;2.47;;;1.45;;
44328;SDS011;30039;51.462;6.892;2023-07-20T10:12:00;2.10;;;1.42;;
44328;SDS011;30039;51.462;6.892;2023-07-20T10:14:50;1.27;;;1.08;;
44328;SDS011;30039;51.462;6.892;2023-07-20T10:17:46;2.08;;;1.15;;
44328;SDS011;30039;51.462;6.892;2023-07-20T10:20:35;2.25;;;1.50;;
44328;SDS011;30039;51.462;6.892;2023-07-20T10:23:22;1.92;;;0.90;;
44328;SDS011;30039;51.462;6.892;2023-07-20T10:26:07;1.27;;;0.88;;
44328;SDS011;30039;51.462;6.892;2023-07-20T10:28:53;0.82;;;0.80;;
44328;SDS011;30039;51.462;6.892;2023-07-20T10:31:39;0.93;;;0.77;;
44328;SDS011;30039;51.462;6.892;2023-07-20T10:34:25;1.63;;;0.95;;
44328;SDS011;30039;51.462;6.892;2023-07-20T10:37:11;1.88;;;1.30;;
44328;SDS011;30039;51.462;6.892;2023-07-20T10:43:11;3.65;;;2.00;;
44328;SDS011;30039;51.462;6.892;2023-07-20T10:45:57;2.33;;;1.73;;
44328;SDS011;30039;51.462;6.892;2023-07-20T10:48:59;2.28;;;1.50;;
44328;SDS011;30039;51.462;6.892;2023-07-20T10:51:45;2.47;;;1.58;;
44328;SDS011;30039;51.462;6.892;2023-07-20T10:54:33;3.15;;;1.52;;
44328;SDS011;30039;51.462;6.892;2023-07-20T10:57:23;2.17;;;1.83;;
44328;SDS011;30039;51.462;6.892;2023-07-20T11:00:10;2.35;;;1.40;;
44328;SDS011;30039;51.462;6.892;2023-07-20T11:02:56;2.30;;;1.50;;
44328;SDS011;30039;51.462;6.892;2023-07-20T11:05:44;3.67;;;1.58;;
44328;SDS011;30039;51.462;6.892;2023-07-20T11:08:42;1.95;;;1.50;;
44328;SDS011;30039;51.462;6.892;2023-07-20T11:11:29;3.08;;;1.35;;
44328;SDS011;30039;51.462;6.892;2023-07-20T11:14:22;2.22;;;1.50;;
44328;SDS011;30039;51.462;6.892;2023-07-20T11:17:14;1.95;;;1.40;;
44328;SDS011;30039;51.462;6.892;2023-07-20T11:20:00;2.78;;;1.48;;
44328;SDS011;30039;51.462;6.892;2023-07-20T11:22:46;1.58;;;1.20;;
44328;SDS011;30039;51.462;6.892;2023-07-20T11:25:37;3.38;;;1.50;;
44328;SDS011;30039;51.462;6.892;2023-07-20T11:28:22;2.17;;;1.48;;
44328;SDS011;30039;51.462;6.892;2023-07-20T11:31:08;2.13;;;1.50;;
44328;SDS011;30039;51.462;6.892;2023-07-20T11:33:53;1.73;;;1.45;;
44328;SDS011;30039;51.462;6.892;2023-07-20T11:36:43;4.00;;;1.60;;
44328;SDS011;30039;51.462;6.892;2023-07-20T11:39:28;1.40;;;1.30;;
44328;SDS011;30039;51.462;6.892;2023-07-20T11:42:14;1.88;;;1.40;;
44328;SDS011;30039;51.462;6.892;2023-07-20T11:45:03;2.75;;;1.50;;
44328;SDS011;30039;51.462;6.892;2023-07-20T11:47:50;1.60;;;1.13;;
44328;SDS011;30039;51.462;6.892;2023-07-20T11:50:39;1.73;;;1.10;;
44328;SDS011;30039;51.462;6.892;2023-07-20T11:53:25;2.75;;;1.48;;
44328;SDS011;30039;51.462;6.892;2023-07-20T11:56:10;2.92;;;1.35;;
44328;SDS011;30039;51.462;6.892;2023-07-20T11:58:59;3.85;;;1.25;;
44328;SDS011;30039;51.462;6.892;2023-07-20T12:01:46;1.05;;;0.95;;
44328;SDS011;30039;51.462;6.892;2023-07-20T12:04:32;1.77;;;1.00;;
44328;SDS011;30039;51.462;6.892;2023-07-20T12:07:18;2.28;;;1.00;;
44328;SDS011;30039;51.462;6.892;2023-07-20T12:12:51;2.17;;;1.00;;
44328;SDS011;30039;51.462;6.892;2023-07-20T12:15:36;1.73;;;1.10;;
44328;SDS011;30039;51.462;6.892;2023-07-20T12:18:22;1.92;;;1.20;;
44328;SDS011;30039;51.462;6.892;2023-07-20T12:21:08;3.53;;;1.25;;
44328;SDS011;30039;51.462;6.892;2023-07-20T12:23:55;2.10;;;1.15;;
44328;SDS011;30039;51.462;6.892;2023-07-20T12:26:41;2.20;;;1.00;;
44328;SDS011;30039;51.462;6.892;2023-07-20T12:29:26;1.50;;;1.10;;
44328;SDS011;30039;51.462;6.892;2023-07-20T12:32:12;1.35;;;1.10;;
44328;SDS011;30039;51.462;6.892;2023-07-20T12:34:58;3.50;;;1.05;;
44328;SDS011;30039;51.462;6.892;2023-07-20T12:37:45;1.88;;;1.20;;
44328;SDS011;30039;51.462;6.892;2023-07-20T12:40:34;3.33;;;1.20;;
44328;SDS011;30039;51.462;6.892;2023-07-20T12:43:20;1.98;;;1.17;;
44328;SDS011;30039;51.462;6.892;2023-07-20T12:46:06;1.88;;;0.95;;
44328;SDS011;30039;51.462;6.892;2023-07-20T12:48:51;1.42;;;0.90;;
44328;SDS011;30039;51.462;6.892;2023-07-20T12:51:37;2.38;;;1.25;;
44328;SDS011;30039;51.462;6.892;2023-07-20T12:54:22;2.50;;;1.23;;
44328;SDS011;30039;51.462;6.892;2023-07-20T12:57:08;2.33;;;1.00;;
44328;SDS011;30039;51.462;6.892;2023-07-20T12:59:54;3.15;;;1.08;;
44328;SDS011;30039;51.462;6.892;2023-07-20T13:02:39;2.97;;;0.98;;
44328;SDS011;30039;51.462;6.892;2023-07-20T13:05:25;2.40;;;0.90;;
44328;SDS011;30039;51.462;6.892;2023-07-20T13:08:11;1.10;;;0.90;;
44328;SDS011;30039;51.462;6.892;2023-07-20T13:10:57;1.35;;;1.02;;
44328;SDS011;30039;51.462;6.892;2023-07-20T13:13:42;2.15;;;1.20;;
44328;SDS011;30039;51.462;6.892;2023-07-20T13:16:28;2.25;;;1.08;;
44328;SDS011;30039;51.462;6.892;2023-07-20T13:19:14;4.18;;;1.40;;
44328;SDS011;30039;51.462;6.892;2023-07-20T13:22:00;5.38;;;1.20;;
44328;SDS011;30039;51.462;6.892;2023-07-20T13:24:45;2.45;;;1.00;;
44328;SDS011;30039;51.462;6.892;2023-07-20T13:27:35;2.17;;;1.38;;
44328;SDS011;30039;51.462;6.892;2023-07-20T13:30:22;1.50;;;1.02;;
44328;SDS011;30039;51.462;6.892;2023-07-20T13:33:07;1.48;;;0.95;;
44328;SDS011;30039;51.462;6.892;2023-07-20T13:35:53;2.05;;;1.00;;
44328;SDS011;30039;51.462;6.892;2023-07-20T13:38:40;2.58;;;1.10;;
44328;SDS011;30039;51.462;6.892;2023-07-20T13:41:25;1.48;;;1.13;;
44328;SDS011;30039;51.462;6.892;2023-07-20T13:44:11;3.78;;;1.35;;
44328;SDS011;30039;51.462;6.892;2023-07-20T13:46:57;4.85;;;2.25;;
44328;SDS011;30039;51.462;6.892;2023-07-20T13:49:43;2.35;;;1.25;;
44328;SDS011;30039;51.462;6.892;2023-07-20T13:52:29;1.88;;;1.02;;
44328;SDS011;30039;51.462;6.892;2023-07-20T13:55:14;1.77;;;0.80;;
44328;SDS011;30039;51.462;6.892;2023-07-20T13:58:00;2.95;;;1.27;;
44328;SDS011;30039;51.462;6.892;2023-07-20T14:00:46;1.58;;;1.00;;
44328;SDS011;30039;51.462;6.892;2023-07-20T14:03:32;1.33;;;0.98;;
44328;SDS011;30039;51.462;6.892;2023-07-20T14:06:18;2.03;;;1.05;;
44328;SDS011;30039;51.462;6.892;2023-07-20T14:09:03;1.58;;;1.10;;
44328;SDS011;30039;51.462;6.892;2023-07-20T14:11:49;1.65;;;0.95;;
44328;SDS011;30039;51.462;6.892;2023-07-20T14:14:35;2.05;;;1.00;;
44328;SDS011;30039;51.462;6.892;2023-07-20T14:17:20;1.88;;;1.13;;
44328;SDS011;30039;51.462;6.892;2023-07-20T14:20:06;2.15;;;1.10;;
44328;SDS011;30039;51.462;6.892;2023-07-20T14:22:53;1.65;;;1.00;;
44328;SDS011;30039;51.462;6.892;2023-07-20T14:25:39;1.92;;;1.05;;
44328;SDS011;30039;51.462;6.892;2023-07-20T14:28:25;2.30;;;1.20;;
44328;SDS011;30039;51.462;6.892;2023-07-20T14:31:11;1.75;;;1.05;;
44328;SDS011;30039;51.462;6.892;2023-07-20T14:33:57;4.57;;;1.33;;
44328;SDS011;30039;51.462;6.892;2023-07-20T14:36:42;3.15;;;1.20;;
44328;SDS011;30039;51.462;6.892;2023-07-20T14:39:28;2.92;;;1.00;;
44328;SDS011;30039;51.462;6.892;2023-07-20T14:42:13;3.45;;;1.20;;
44328;SDS011;30039;51.462;6.892;2023-07-20T14:44:59;2.53;;;1.30;;
44328;SDS011;30039;51.462;6.892;2023-07-20T14:47:45;2.40;;;1.20;;
44328;SDS011;30039;51.462;6.892;2023-07-20T14:50:32;2.28;;;1.30;;
44328;SDS011;30039;51.462;6.892;2023-07-20T14:53:18;1.90;;;1.10;;
44328;SDS011;30039;51.462;6.892;2023-07-20T14:56:04;2.50;;;1.20;;
44328;SDS011;30039;51.462;6.892;2023-07-20T14:58:49;2.88;;;1.35;;
44328;SDS011;30039;51.462;6.892;2023-07-20T15:01:35;1.52;;;1.00;;
44328;SDS011;30039;51.462;6.892;2023-07-20T15:04:21;2.13;;;1.35;;
44328;SDS011;30039;51.462;6.892;2023-07-20T15:07:06;1.90;;;1.15;;
44328;SDS011;30039;51.462;6.892;2023-07-20T15:09:52;1.25;;;0.95;;
44328;SDS011;30039;51.462;6.892;2023-07-20T15:12:38;2.60;;;1.10;;
44328;SDS011;30039;51.462;6.892;2023-07-20T15:15:24;3.10;;;1.10;;
44328;SDS011;30039;51.462;6.892;2023-07-20T15:18:10;1.90;;;1.10;;
44328;SDS011;30039;51.462;6.892;2023-07-20T15:20:55;1.65;;;1.10;;
44328;SDS011;30039;51.462;6.892;2023-07-20T15:23:41;1.75;;;1.20;;
44328;SDS011;30039;51.462;6.892;2023-07-20T15:26:27;1.48;;;1.08;;
44328;SDS011;30039;51.462;6.892;2023-07-20T15:29:13;1.95;;;1.27;;
44328;SDS011;30039;51.462;6.892;2023-07-20T15:31:58;1.25;;;1.00;;
44328;SDS011;30039;51.462;6.892;2023-07-20T15:34:44;5.78;;;1.50;;
44328;SDS011;30039;51.462;6.892;2023-07-20T15:37:30;2.60;;;1.40;;
44328;SDS011;30039;51.462;6.892;2023-07-20T15:40:17;2.72;;;1.30;;
44328;SDS011;30039;51.462;6.892;2023-07-20T15:43:02;4.05;;;2.00;;
44328;SDS011;30039;51.462;6.892;2023-07-20T15:45:48;2.15;;;1.25;;
44328;SDS011;30039;51.462;6.892;2023-07-20T15:48:37;2.90;;;1.48;;
44328;SDS011;30039;51.462;6.892;2023-07-20T15:51:23;2.08;;;1.25;;
44328;SDS011;30039;51.462;6.892;2023-07-20T15:54:09;4.90;;;2.00;;
44328;SDS011;30039;51.462;6.892;2023-07-20T15:56:55;5.15;;;2.40;;
44328;SDS011;30039;51.462;6.892;2023-07-20T15:59:41;3.20;;;1.63;;
44328;SDS011;30039;51.462;6.892;2023-07-20T16:02:27;4.50;;;2.38;;
44328;SDS011;30039;51.462;6.892;2023-07-20T16:05:12;2.25;;;1.58;;
44328;SDS011;30039;51.462;6.892;2023-07-20T16:07:58;2.47;;;1.00;;
44328;SDS011;30039;51.462;6.892;2023-07-20T16:10:44;1.80;;;1.20;;
44328;SDS011;30039;51.462;6.892;2023-07-20T16:13:29;3.58;;;1.05;;
44328;SDS011;30039;51.462;6.892;2023-07-20T16:16:15;1.65;;;1.08;;
44328;SDS011;30039;51.462;6.892;2023-07-20T16:19:01;2.20;;;1.13;;
44328;SDS011;30039;51.462;6.892;2023-07-20T16:21:47;1.80;;;1.00;;
44328;SDS011;30039;51.462;6.892;2023-07-20T16:24:32;2.53;;;1.48;;
44328;SDS011;30039;51.462;6.892;2023-07-20T16:27:18;1.75;;;1.20;;
44328;SDS011;30039;51.462;6.892;2023-07-20T16:30:04;2.65;;;1.45;;
44328;SDS011;30039;51.462;6.892;2023-07-20T16:32:50;1.20;;;1.10;;
44328;SDS011;30039;51.462;6.892;2023-07-20T16:35:36;3.60;;;1.55;;
44328;SDS011;30039;51.462;6.892;2023-07-20T16:38:22;2.70;;;1.30;;
44328;SDS011;30039;51.462;6.892;2023-07-20T16:41:09;2.75;;;1.70;;
44328;SDS011;30039;51.462;6.892;2023-07-20T16:43:55;2.38;;;1.23;;
44328;SDS011;30039;51.462;6.892;2023-07-20T16:46:42;4.30;;;2.45;;
44328;SDS011;30039;51.462;6.892;2023-07-20T16:49:27;4.13;;;1.38;;
44328;SDS011;30039;51.462;6.892;2023-07-20T16:52:15;4.15;;;1.10;;
44328;SDS011;30039;51.462;6.892;2023-07-20T16:55:01;2.55;;;1.40;;
44328;SDS011;30039;51.462;6.892;2023-07-20T16:57:47;2.47;;;1.20;;
44328;SDS011;30039;51.462;6.892;2023-07-20T17:00:33;2.65;;;1.30;;
44328;SDS011;30039;51.462;6.892;2023-07-20T17:03:19;3.58;;;1.10;;
44328;SDS011;30039;51.462;6.892;2023-07-20T17:06:05;1.73;;;1.10;;
44328;SDS011;30039;51.462;6.892;2023-07-20T17:08:52;1.10;;;0.95;;
44328;SDS011;30039;51.462;6.892;2023-07-20T17:11:38;1.55;;;1.00;;
44328;SDS011;30039;51.462;6.892;2023-07-20T17:14:24;2.17;;;1.10;;
44328;SDS011;30039;51.462;6.892;2023-07-20T17:17:10;2.05;;;1.20;;
44328;SDS011;30039;51.462;6.892;2023-07-20T17:19:55;1.33;;;0.95;;
44328;SDS011;30039;51.462;6.892;2023-07-20T17:22:41;1.10;;;0.80;;
44328;SDS011;30039;51.462;6.892;2023-07-20T17:25:26;3.28;;;1.92;;
44328;SDS011;30039;51.462;6.892;2023-07-20T17:28:14;2.25;;;1.20;;
44328;SDS011;30039;51.462;6.892;2023-07-20T17:31:00;2.50;;;1.17;;
44328;SDS011;30039;51.462;6.892;2023-07-20T17:33:47;1.77;;;1.10;;
44328;SDS011;30039;51.462;6.892;2023-07-20T17:36:33;1.45;;;1.00;;
44328;SDS011;30039;51.462;6.892;2023-07-20T17:39:18;1.48;;;1.10;;
44328;SDS011;30039;51.462;6.892;2023-07-20T17:42:04;2.65;;;0.90;;
44328;SDS011;30039;51.462;6.892;2023-07-20T17:44:50;1.65;;;1.05;;
44328;SDS011;30039;51.462;6.892;2023-07-20T17:47:38;4.30;;;1.08;;
44328;SDS011;30039;51.462;6.892;2023-07-20T17:50:23;3.42;;;1.10;;
44328;SDS011;30039;51.462;6.892;2023-07-20T17:53:12;4.03;;;1.10;;